Time;durP1;ratioP1;P1;durP2;ratioP2;P2;SDS_P1;SDS_P2;PMS_P1;PMS_P2;Temp;Humidity;BMP_temperature;BMP_pressure;BME280_temperature;BME280_humidity;BME280_pressure;Samples;Min_cycle;Max_cycle;Signal;HPM_P1;HPM_P2
2023/04/09 00:01:10;;;;;;;;;;;;;;;26.76;40.67;94647.16;4967877;28;7251;-56
2023/04/09 00:04:02;;;;;;;;;;;;;;;26.76;40.04;94639.63;4980255;28;8981;-55
2023/04/09 00:06:42;;;;;;;;;;;;;;;26.76;39.88;94644.41;4974021;28;7264;-56
2023/04/09 00:09:31;;;;;;;;;;;;;;;26.76;40.43;94641.63;4975053;28;7044;-55
2023/04/09 00:12:05;;;;;;;;;;;;;;;26.74;40.04;94639.41;4976921;28;9005;-56
2023/04/09 00:14:42;;;;;;;;;;;;;;;26.72;40.14;94636.38;4976958;28;9057;-55
2023/04/09 00:17:48;;;;;;;;;;;;;;;26.75;39.95;94642.91;4976867;28;9472;-56
2023/04/09 00:20:26;;;;;;;;;;;;;;;26.74;40.51;94633.13;4976886;28;7903;-55
2023/04/09 00:23:31;;;;;;;;;;;;;;;26.72;40.64;94630.84;4969431;28;7020;-56
2023/04/09 00:26:05;;;;;;;;;;;;;;;26.70;40.26;94622.34;4954497;28;7106;-56
2023/04/09 00:28:42;;;;;;;;;;;;;;;26.70;39.96;94624.34;4954231;28;7044;-55
2023/04/09 00:31:47;;;;;;;;;;;;;;;26.72;40.21;94627.34;4939037;28;7066;-55
2023/04/09 00:34:13;;;;;;;;;;;;;;;26.69;40.69;94622.84;4934742;28;7100;-56
2023/04/09 00:36:56;;;;;;;;;;;;;;;26.68;40.46;94616.59;4952207;28;7047;-55
2023/04/09 00:39:22;;;;;;;;;;;;;;;26.67;40.59;94617.84;4938466;28;7034;-56
2023/04/09 00:41:48;;;;;;;;;;;;;;;26.67;40.16;94619.84;4937870;28;7316;-56
2023/04/09 00:44:15;;;;;;;;;;;;;;;26.66;40.35;94623.88;4950915;28;9130;-56
2023/04/09 00:46:44;;;;;;;;;;;;;;;26.63;40.12;94616.63;4934321;28;7276;-56
2023/04/09 00:49:14;;;;;;;;;;;;;;;26.62;40.51;94626.16;4935471;28;9151;-56
2023/04/09 00:51:45;;;;;;;;;;;;;;;26.63;40.06;94619.38;4936076;28;9152;-56
2023/04/09 00:54:12;;;;;;;;;;;;;;;26.61;40.46;94625.41;4934219;28;9073;-56
2023/04/09 00:56:41;;;;;;;;;;;;;;;26.63;40.47;94628.41;4978192;28;7255;-55
2023/04/09 00:59:07;;;;;;;;;;;;;;;26.64;40.41;94629.88;4991648;28;7446;-55
2023/04/09 01:01:33;;;;;;;;;;;;;;;26.61;40.22;94619.91;4976478;28;7232;-55
2023/04/09 01:03:59;;;;;;;;;;;;;;;26.66;40.12;94618.34;4963470;28;7270;-56
2023/04/09 01:06:57;;;;;;;;;;;;;;;26.65;40.84;94622.38;4998975;28;7836;-56
2023/04/09 01:09:48;;;;;;;;;;;;;;;26.66;40.46;94615.59;4993810;28;7234;-55
2023/04/09 01:12:32;;;;;;;;;;;;;;;26.64;40.45;94620.88;4998407;28;7666;-56
2023/04/09 01:15:27;;;;;;;;;;;;;;;26.62;40.35;94626.91;4996947;28;7219;-55
2023/04/09 01:18:37;;;;;;;;;;;;;;;26.60;40.61;94626.66;5000950;28;7302;-56
2023/04/09 01:21:13;;;;;;;;;;;;;;;26.63;40.13;94631.16;4977351;28;7411;-55
2023/04/09 01:24:17;;;;;;;;;;;;;;;26.62;40.45;94615.13;5010152;28;9081;-55
2023/04/09 01:27:03;;;;;;;;;;;;;;;26.62;40.21;94624.13;4995723;28;7292;-55
2023/04/09 01:29:46;;;;;;;;;;;;;;;26.62;40.56;94617.88;4984105;28;7710;-55
2023/04/09 01:32:20;;;;;;;;;;;;;;;26.62;40.52;94617.88;4995614;28;9598;-55
2023/04/09 01:34:49;;;;;;;;;;;;;;;26.62;40.12;94609.63;4990450;28;7279;-56
2023/04/09 01:37:18;;;;;;;;;;;;;;;26.63;40.00;94611.09;4985420;28;7736;-55
2023/04/09 01:39:45;;;;;;;;;;;;;;;26.62;40.90;94606.84;5004998;28;7041;-55
2023/04/09 01:42:15;;;;;;;;;;;;;;;26.61;40.04;94605.34;4990254;28;7285;-56
2023/04/09 01:44:45;;;;;;;;;;;;;;;26.58;40.48;94600.84;4985640;28;7371;-56
2023/04/09 01:47:12;;;;;;;;;;;;;;;26.58;40.87;94603.59;4987955;28;9056;-55
2023/04/09 01:49:42;;;;;;;;;;;;;;;26.58;40.43;94600.84;4983416;28;7275;-56
2023/04/09 01:52:18;;;;;;;;;;;;;;;26.57;40.86;94610.38;4993948;28;7135;-56
2023/04/09 01:54:44;;;;;;;;;;;;;;;26.55;40.58;94605.41;4995416;28;7088;-55
2023/04/09 01:57:40;;;;;;;;;;;;;;;26.56;40.03;94603.38;4964704;28;7261;-56
2023/04/09 02:00:15;;;;;;;;;;;;;;;26.58;40.01;94603.59;4976946;28;8791;-56
2023/04/09 02:03:23;;;;;;;;;;;;;;;26.57;40.67;94611.16;4993904;28;9048;-55
2023/04/09 02:06:14;;;;;;;;;;;;;;;26.55;40.23;94610.16;4986797;28;7356;-55
2023/04/09 02:08:52;;;;;;;;;;;;;;;26.55;40.59;94612.91;4998164;28;7427;-55
2023/04/09 02:11:22;;;;;;;;;;;;;;;26.54;40.32;94603.88;4983936;28;7290;-56
2023/04/09 02:13:58;;;;;;;;;;;;;;;26.57;40.33;94611.16;4999212;28;9030;-56
2023/04/09 02:16:26;;;;;;;;;;;;;;;26.55;40.40;94608.16;4993850;28;7188;-55
2023/04/09 02:19:05;;;;;;;;;;;;;;;26.54;40.60;94605.88;4995450;28;8984;-55
2023/04/09 02:21:34;;;;;;;;;;;;;;;26.55;40.68;94610.91;4988233;28;8724;-55
2023/04/09 02:24:09;;;;;;;;;;;;;;;26.54;40.66;94617.69;4986479;28;9155;-56
2023/04/09 02:26:44;;;;;;;;;;;;;;;26.54;40.59;94619.69;4979392;28;7479;-55
2023/04/09 02:29:18;;;;;;;;;;;;;;;26.52;41.18;94613.94;4976536;28;7785;-55
2023/04/09 02:31:44;;;;;;;;;;;;;;;26.54;40.20;94611.41;4991128;28;7030;-55
2023/04/09 02:34:10;;;;;;;;;;;;;;;26.55;40.75;94610.91;5008597;28;6926;-55
2023/04/09 02:36:36;;;;;;;;;;;;;;;26.56;40.89;94608.88;5008345;28;9210;-55
2023/04/09 02:39:02;;;;;;;;;;;;;;;26.56;40.66;94612.41;5006139;28;7945;-55
2023/04/09 02:41:41;;;;;;;;;;;;;;;26.56;40.47;94617.16;4981181;28;8693;-55
2023/04/09 02:44:58;;;;;;;;;;;;;;;26.55;40.27;94607.41;4999584;28;9067;-56
2023/04/09 02:47:43;;;;;;;;;;;;;;;26.53;40.79;94609.91;4991292;28;7011;-55
2023/04/09 02:50:13;;;;;;;;;;;;;;;26.55;40.39;94610.91;4997408;28;7052;-56
2023/04/09 02:52:45;;;;;;;;;;;;;;;26.56;39.89;94603.38;4985938;28;7499;-55
2023/04/09 02:55:13;;;;;;;;;;;;;;;26.52;40.41;94614.69;4997579;28;9334;-56
2023/04/09 02:57:50;;;;;;;;;;;;;;;26.47;40.28;94611.97;4981061;28;8949;-56
2023/04/09 03:00:55;;;;;;;;;;;;;;;26.50;40.46;94614.44;4986831;28;9384;-56
2023/04/09 03:03:37;;;;;;;;;;;;;;;26.52;40.41;94609.16;4990102;28;9049;-56
2023/04/09 03:06:28;;;;;;;;;;;;;;;26.53;40.37;94602.41;5013932;28;8991;-56
2023/04/09 03:09:43;;;;;;;;;;;;;;;26.53;40.28;94602.41;4998455;28;7111;-55
2023/04/09 03:12:56;;;;;;;;;;;;;;;26.56;40.10;94597.84;4976800;28;9020;-55
2023/04/09 03:15:31;;;;;;;;;;;;;;;26.54;40.50;94594.84;4975509;28;7260;-56
2023/04/09 03:18:22;;;;;;;;;;;;;;;26.52;40.83;94594.63;4974338;28;7022;-55
2023/04/09 03:21:20;;;;;;;;;;;;;;;26.53;40.80;94598.88;4975038;28;7271;-55
2023/04/09 03:31:06;;;;;;;;;;;;;;;26.44;40.61;94597.19;4974815;28;6788;-55
2023/04/09 03:33:53;;;;;;;;;;;;;;;26.44;40.93;94601.94;4984112;28;7195;-55
2023/04/09 03:36:27;;;;;;;;;;;;;;;26.44;40.55;94608.22;4976849;28;7524;-55
2023/04/09 03:39:09;;;;;;;;;;;;;;;26.44;40.84;94599.19;4982712;28;9005;-56
2023/04/09 03:41:57;;;;;;;;;;;;;;;26.45;40.72;94595.91;4982553;28;7208;-55
2023/04/09 03:44:39;;;;;;;;;;;;;;;26.45;40.86;94604.19;4955465;28;7252;-56
2023/04/09 03:47:06;;;;;;;;;;;;;;;26.44;40.52;94604.72;4981345;28;7354;-56
2023/04/09 03:49:37;;;;;;;;;;;;;;;26.42;40.97;94604.47;5012181;28;7287;-55
2023/04/09 03:52:49;;;;;;;;;;;;;;;26.45;41.09;94603.44;4994881;28;8726;-55
2023/04/09 03:55:17;;;;;;;;;;;;;;;26.43;40.71;94603.94;5005379;28;9291;-55
2023/04/09 03:57:43;;;;;;;;;;;;;;;26.40;40.36;94602.22;4979882;28;9031;-55
2023/04/09 04:00:18;;;;;;;;;;;;;;;26.39;40.65;94597.22;4989136;28;9320;-55
2023/04/09 04:02:44;;;;;;;;;;;;;;;26.41;40.45;94597.44;4990320;28;6953;-55
2023/04/09 04:05:45;;;;;;;;;;;;;;;26.45;40.15;94587.63;4997783;28;7111;-56
2023/04/09 04:08:28;;;;;;;;;;;;;;;26.47;40.81;94595.41;4976831;28;8204;-56
2023/04/09 04:10:55;;;;;;;;;;;;;;;26.47;40.81;94598.91;4986070;28;7804;-55
2023/04/09 04:13:38;;;;;;;;;;;;;;;26.50;40.75;94600.66;4980974;28;7772;-55
2023/04/09 04:16:10;;;;;;;;;;;;;;;26.52;40.54;94600.13;5005530;28;7017;-55
2023/04/09 04:18:47;;;;;;;;;;;;;;;26.52;39.82;94600.13;4992750;28;9018;-56
2023/04/09 04:21:15;;;;;;;;;;;;;;;26.50;39.87;94597.13;4997446;28;7100;-56
2023/04/09 04:23:41;;;;;;;;;;;;;;;26.50;39.82;94599.91;5002957;28;9470;-56
2023/04/09 04:26:11;;;;;;;;;;;;;;;26.48;39.96;94597.66;4990202;28;8763;-55
2023/04/09 04:28:42;;;;;;;;;;;;;;;26.51;40.39;94602.13;4992315;28;7017;-56
2023/04/09 04:31:11;;;;;;;;;;;;;;;26.52;40.25;94591.84;4976602;28;9388;-55
2023/04/09 04:33:40;;;;;;;;;;;;;;;26.52;39.67;94597.38;4999542;28;7049;-55
2023/04/09 04:36:13;;;;;;;;;;;;;;;26.50;39.29;94610.94;4984419;28;9076;-56
2023/04/09 04:38:40;;;;;;;;;;;;;;;26.43;39.37;94600.44;4986702;28;9391;-55
2023/04/09 04:41:07;;;;;;;;;;;;;;;26.38;40.15;94604.00;4986389;28;7090;-55
2023/04/09 04:43:33;;;;;;;;;;;;;;;26.41;39.53;94600.19;4986347;28;9030;-55
2023/04/09 04:46:00;;;;;;;;;;;;;;;26.36;39.64;94607.25;4988280;28;7429;-55
2023/04/09 04:48:53;;;;;;;;;;;;;;;26.41;39.70;94608.47;4986985;28;7288;-55
2023/04/09 04:51:19;;;;;;;;;;;;;;;26.43;39.31;94608.72;4968356;28;8183;-55
2023/04/09 04:53:46;;;;;;;;;;;;;;;26.42;39.57;94601.72;4986055;28;7258;-56
2023/04/09 04:56:25;;;;;;;;;;;;;;;26.39;39.59;94613.75;4973958;28;7272;-56
2023/04/09 04:59:10;;;;;;;;;;;;;;;26.36;39.75;94612.03;4988543;28;7956;-56
2023/04/09 05:02:05;;;;;;;;;;;;;;;26.35;40.25;94607.78;4966785;28;9138;-55
2023/04/09 05:04:57;;;;;;;;;;;;;;;26.36;40.12;94612.03;4972871;28;7063;-55
2023/04/09 05:07:33;;;;;;;;;;;;;;;26.36;40.00;94607.25;4988774;28;8062;-55
2023/04/09 05:10:14;;;;;;;;;;;;;;;26.40;40.32;94616.03;4984871;28;9084;-55
2023/04/09 05:12:51;;;;;;;;;;;;;;;26.38;40.11;94604.72;4981992;28;8952;-55
2023/04/09 05:15:48;;;;;;;;;;;;;;;26.42;39.79;94612.75;4984720;28;9106;-56
2023/04/09 05:18:17;;;;;;;;;;;;;;;26.41;40.08;94614.75;4918670;29;7028;-56
2023/04/09 05:20:45;;;;;;;;;;;;;;;26.39;39.90;94613.75;4920892;28;7248;-55
2023/04/09 05:23:45;;;;;;;;;;;;;;;26.40;39.80;94616.03;4923661;29;8873;-56
2023/04/09 05:26:12;;;;;;;;;;;;;;;26.35;40.81;94616.78;4916538;29;7052;-56
2023/04/09 05:28:39;;;;;;;;;;;;;;;26.38;40.11;94615.75;4928381;29;9436;-55
2023/04/09 05:31:18;;;;;;;;;;;;;;;26.42;40.21;94618.25;4913328;29;9430;-55
2023/04/09 05:33:44;;;;;;;;;;;;;;;26.41;40.29;94619.50;4929974;29;7207;-55
2023/04/09 05:36:26;;;;;;;;;;;;;;;26.34;39.93;94615.28;4933774;29;9210;-56
2023/04/09 05:39:01;;;;;;;;;;;;;;;26.33;40.21;94613.81;4917038;29;9102;-55
2023/04/09 05:41:28;;;;;;;;;;;;;;;26.34;40.25;94622.84;4920273;29;8896;-56
2023/04/09 05:43:55;;;;;;;;;;;;;;;26.35;43.53;94616.03;4916506;29;7023;-55
2023/04/09 05:47:16;;;;;;;;;;;;;;;26.33;41.07;94613.81;4908832;29;9133;-55
2023/04/09 05:49:50;;;;;;;;;;;;;;;26.29;40.93;94612.56;4914618;29;7449;-55
2023/04/09 05:52:36;;;;;;;;;;;;;;;26.26;40.69;94611.59;4913905;29;7041;-55
2023/04/09 05:55:32;;;;;;;;;;;;;;;26.24;40.82;94614.09;4923287;29;7246;-56
2023/04/09 05:58:17;;;;;;;;;;;;;;;26.25;40.85;94621.13;4906460;29;7270;-56
2023/04/09 06:00:44;;;;;;;;;;;;;;;26.31;40.56;94618.31;4913356;29;8586;-55
2023/04/09 06:03:31;;;;;;;;;;;;;;;26.39;40.19;94617.28;4909012;29;7023;-56
2023/04/09 06:05:58;;;;;;;;;;;;;;;26.30;38.79;94619.56;4913327;29;7265;-56
2023/04/09 06:08:30;;;;;;;;;;;;;;;26.25;39.44;94623.13;4917510;29;7285;-55
2023/04/09 06:10:57;;;;;;;;;;;;;;;26.19;39.69;94620.38;4914262;29;7140;-55
2023/04/09 06:13:29;;;;;;;;;;;;;;;26.18;39.42;94618.91;4921571;29;7271;-56
2023/04/09 06:16:12;;;;;;;;;;;;;;;26.16;39.86;94622.16;4937611;29;7024;-55
2023/04/09 06:18:49;;;;;;;;;;;;;;;26.21;40.06;94628.16;4935738;29;8750;-56
2023/04/09 06:21:25;;;;;;;;;;;;;;;26.19;39.76;94623.13;4923756;28;7030;-55
2023/04/09 06:23:53;;;;;;;;;;;;;;;26.20;40.53;94629.41;4949917;28;9143;-56
2023/04/09 06:26:50;;;;;;;;;;;;;;;26.23;40.17;94631.88;4978071;28;9016;-56
2023/04/09 06:29:17;;;;;;;;;;;;;;;26.21;41.13;94628.16;4921308;29;9342;-55
2023/04/09 06:31:46;;;;;;;;;;;;;;;26.22;40.75;94627.66;4917314;29;7511;-55
2023/04/09 06:34:41;;;;;;;;;;;;;;;26.20;41.22;94626.66;4906278;29;9021;-55
2023/04/09 06:37:07;;;;;;;;;;;;;;;26.21;40.55;94628.16;4920416;29;7130;-56
2023/04/09 06:39:33;;;;;;;;;;;;;;;26.24;41.03;94627.88;4903153;29;9349;-55
2023/04/09 06:42:09;;;;;;;;;;;;;;;26.31;40.48;94632.13;4918203;29;8753;-55
2023/04/09 06:44:35;;;;;;;;;;;;;;;26.37;40.36;94630.06;4917863;29;8749;-55
2023/04/09 06:47:03;;;;;;;;;;;;;;;26.39;40.10;94628.31;4916164;29;7198;-55
2023/04/09 06:49:31;;;;;;;;;;;;;;;26.39;40.54;94622.03;4914630;29;7182;-56
2023/04/09 06:52:08;;;;;;;;;;;;;;;26.40;39.77;94623.53;4919102;29;9168;-56
2023/04/09 06:54:49;;;;;;;;;;;;;;;26.39;40.65;94622.03;4918272;29;9056;-55
2023/04/09 06:57:43;;;;;;;;;;;;;;;26.37;40.85;94630.06;4915594;29;7196;-56
2023/04/09 07:00:29;;;;;;;;;;;;;;;26.37;40.78;94622.56;4923292;29;7139;-56
2023/04/09 07:02:57;;;;;;;;;;;;;;;26.33;40.64;94621.31;4901533;29;7229;-55
2023/04/09 07:05:33;;;;;;;;;;;;;;;26.31;40.51;94621.09;4936402;28;7257;-55
2023/04/09 07:08:32;;;;;;;;;;;;;;;26.31;41.44;94621.09;4969739;28;9459;-55
2023/04/09 07:11:06;;;;;;;;;;;;;;;26.29;41.04;94626.34;4965666;28;7176;-55
2023/04/09 07:14:15;;;;;;;;;;;;;;;26.26;40.96;94624.63;4961897;28;7678;-55
2023/04/09 07:16:54;;;;;;;;;;;;;;;26.25;41.75;94620.38;4996362;28;9480;-56
2023/04/09 07:19:21;;;;;;;;;;;;;;;26.26;41.46;94619.84;5005460;28;7088;-55
2023/04/09 07:21:54;;;;;;;;;;;;;;;26.30;41.04;94619.56;4990764;28;7864;-56
2023/04/09 07:24:26;;;;;;;;;;;;;;;26.31;41.26;94618.31;4990818;28;9123;-55
2023/04/09 07:27:17;;;;;;;;;;;;;;;26.36;41.23;94618.28;4998814;28;7365;-55
2023/04/09 07:29:43;;;;;;;;;;;;;;;26.42;41.14;94626.53;4990573;28;7346;-56
2023/04/09 07:32:09;;;;;;;;;;;;;;;26.40;41.14;94610.50;4983945;28;7544;-55
2023/04/09 07:34:46;;;;;;;;;;;;;;;26.47;40.69;94617.50;5005992;28;9041;-56
2023/04/09 07:37:31;;;;;;;;;;;;;;;26.46;40.89;94627.00;5005138;28;7041;-56
2023/04/09 07:40:26;;;;;;;;;;;;;;;26.44;40.98;94630.28;4982628;28;9442;-56
2023/04/09 07:42:59;;;;;;;;;;;;;;;26.41;41.54;94622.28;4990168;28;9041;-55
2023/04/09 07:45:52;;;;;;;;;;;;;;;26.36;41.08;94623.78;4994553;28;8276;-55
2023/04/09 07:48:31;;;;;;;;;;;;;;;26.41;40.92;94625.78;5006451;28;7286;-55
2023/04/09 07:50:57;;;;;;;;;;;;;;;26.44;41.25;94626.78;5003099;28;8634;-55
2023/04/09 07:53:40;;;;;;;;;;;;;;;26.47;40.57;94628.53;5001586;28;7120;-55
2023/04/09 07:56:20;;;;;;;;;;;;;;;26.47;40.77;94631.28;4991658;28;9187;-56
2023/04/09 07:58:47;;;;;;;;;;;;;;;26.55;40.31;94634.97;4997749;28;7259;-55
2023/04/09 08:01:23;;;;;;;;;;;;;;;26.60;40.34;94631.44;5004794;28;6994;-56
2023/04/09 08:04:02;;;;;;;;;;;;;;;26.57;40.53;94632.47;4986026;28;7027;-56
2023/04/09 08:06:56;;;;;;;;;;;;;;;26.59;40.38;94635.44;4987776;28;8226;-56
2023/04/09 08:09:31;;;;;;;;;;;;;;;26.64;40.59;94637.44;5002348;28;9380;-56
2023/04/09 08:12:05;;;;;;;;;;;;;;;26.63;41.08;94633.16;4985496;28;7248;-56
2023/04/09 08:14:33;;;;;;;;;;;;;;;26.65;40.64;94633.41;5005342;28;6981;-56
2023/04/09 08:17:00;;;;;;;;;;;;;;;26.62;41.02;94635.16;5001289;28;7055;-56
2023/04/09 08:19:42;;;;;;;;;;;;;;;26.64;40.78;94637.44;5004862;28;7056;-56
2023/04/09 08:22:29;;;;;;;;;;;;;;;26.68;41.03;94644.19;5007992;28;7499;-56
2023/04/09 08:25:09;;;;;;;;;;;;;;;26.71;40.73;94642.38;4992538;28;7483;-56
2023/04/09 08:27:38;;;;;;;;;;;;;;;26.69;40.58;94651.19;4986137;28;9046;-56
2023/04/09 08:30:11;;;;;;;;;;;;;;;26.65;40.96;94649.94;5007749;28;7034;-56
2023/04/09 08:32:37;;;;;;;;;;;;;;;26.65;40.85;94653.47;4994191;28;7382;-56
2023/04/09 08:35:17;;;;;;;;;;;;;;;26.65;40.42;94641.69;4993786;28;7007;-56
2023/04/09 08:38:21;;;;;;;;;;;;;;;26.65;40.69;94649.94;5009141;28;8202;-56
2023/04/09 08:40:59;;;;;;;;;;;;;;;26.67;40.31;94658.47;4990678;28;7267;-56
2023/04/09 08:43:59;;;;;;;;;;;;;;;26.65;40.47;94661.00;4999878;28;7027;-56
2023/04/09 08:46:30;;;;;;;;;;;;;;;26.61;40.74;94652.25;4983346;28;6959;-56
2023/04/09 08:49:09;;;;;;;;;;;;;;;26.60;40.73;94654.25;4985050;28;8720;-56
2023/04/09 08:51:35;;;;;;;;;;;;;;;26.62;41.02;94653.75;4993515;28;9147;-56
2023/04/09 08:54:06;;;;;;;;;;;;;;;26.65;40.82;94663.75;4988966;28;7906;-57
2023/04/09 08:56:40;;;;;;;;;;;;;;;26.60;40.61;94661.78;4991300;28;7280;-57
2023/04/09 08:59:08;;;;;;;;;;;;;;;26.53;41.22;94668.59;4984629;28;8677;-57
2023/04/09 09:01:34;;;;;;;;;;;;;;;26.51;41.30;94667.63;4985854;28;8550;-56
2023/04/09 09:04:06;;;;;;;;;;;;;;;26.47;41.01;94669.91;4996412;28;7021;-56
2023/04/09 09:06:40;;;;;;;;;;;;;;;26.49;41.23;94676.38;5001427;28;8894;-57
2023/04/09 09:09:25;;;;;;;;;;;;;;;26.49;41.34;94675.66;4984113;28;9324;-56
2023/04/09 09:12:06;;;;;;;;;;;;;;;26.50;41.03;94674.38;4986366;28;9246;-56
2023/04/09 09:14:50;;;;;;;;;;;;;;;26.51;40.69;94676.63;4986265;28;7174;-56
2023/04/09 09:18:02;;;;;;;;;;;;;;;26.53;41.44;94674.13;4979114;28;7266;-57
2023/04/09 09:20:40;;;;;;;;;;;;;;;26.55;41.54;94673.59;4974579;28;7055;-56
2023/04/09 09:23:11;;;;;;;;;;;;;;;26.59;40.73;94685.88;4959541;28;7279;-56
2023/04/09 09:25:51;;;;;;;;;;;;;;;26.58;41.65;94672.56;4976265;28;7060;-57
2023/04/09 09:28:42;;;;;;;;;;;;;;;26.61;40.76;94680.59;4963054;28;7261;-56
2023/04/09 09:31:13;;;;;;;;;;;;;;;26.64;41.54;94670.53;4967833;28;7186;-57
2023/04/09 09:33:50;;;;;;;;;;;;;;;26.64;41.13;94678.81;4967634;28;8721;-57
2023/04/09 09:36:48;;;;;;;;;;;;;;;26.66;41.38;94676.31;4972154;28;9248;-57
2023/04/09 09:39:16;;;;;;;;;;;;;;;26.68;40.91;94679.28;4972199;28;9770;-57
2023/04/09 09:42:07;;;;;;;;;;;;;;;26.72;41.27;94682.53;4977530;28;7297;-56
2023/04/09 09:44:33;;;;;;;;;;;;;;;26.71;40.78;94675.50;4980605;28;7363;-57
2023/04/09 09:47:03;;;;;;;;;;;;;;;26.76;40.59;94677.50;4971658;28;7340;-56
2023/04/09 09:49:29;;;;;;;;;;;;;;;26.76;41.07;94677.50;4985502;28;7249;-56
2023/04/09 09:51:58;;;;;;;;;;;;;;;26.77;40.58;94670.75;4985695;28;9123;-57
2023/04/09 09:54:32;;;;;;;;;;;;;;;26.78;40.85;94669.47;4959304;28;7348;-56
2023/04/09 09:57:06;;;;;;;;;;;;;;;26.78;41.23;94681.25;4973876;28;9067;-56
2023/04/09 09:59:38;;;;;;;;;;;;;;;26.77;40.97;94670.75;5019749;28;8044;-56
2023/04/09 10:02:09;;;;;;;;;;;;;;;26.77;41.03;94671.47;5006339;28;7597;-56
2023/04/09 10:04:36;;;;;;;;;;;;;;;26.78;40.95;94666.72;4984915;28;7136;-56
2023/04/09 10:07:07;;;;;;;;;;;;;;;26.78;40.71;94672.97;4993289;28;8620;-56
2023/04/09 10:09:44;;;;;;;;;;;;;;;26.79;40.85;94670.97;4978963;28;6868;-57
2023/04/09 10:12:25;;;;;;;;;;;;;;;26.78;41.21;94669.47;5009736;28;7265;-56
2023/04/09 10:15:06;;;;;;;;;;;;;;;26.77;41.20;94671.47;5015167;28;9027;-56
2023/04/09 10:17:32;;;;;;;;;;;;;;;26.77;41.29;94670.75;5001770;28;7055;-57
2023/04/09 10:20:20;;;;;;;;;;;;;;;26.78;40.95;94669.47;5015396;28;8833;-56
2023/04/09 10:22:51;;;;;;;;;;;;;;;26.79;40.72;94671.72;5006721;28;7050;-56
2023/04/09 10:25:36;;;;;;;;;;;;;;;26.81;40.88;94662.94;4979855;28;9369;-56
2023/04/09 10:28:22;;;;;;;;;;;;;;;26.78;40.77;94661.94;4984542;28;7243;-56
2023/04/09 10:30:57;;;;;;;;;;;;;;;26.80;41.54;94653.91;4991985;28;9054;-57
2023/04/09 10:33:43;;;;;;;;;;;;;;;26.85;41.08;94652.38;4991863;28;8714;-56
2023/04/09 10:36:21;;;;;;;;;;;;;;;26.83;41.21;94652.13;5001988;28;7258;-57
2023/04/09 10:38:55;;;;;;;;;;;;;;;26.80;41.28;94658.66;5001817;28;9255;-56
2023/04/09 10:41:39;;;;;;;;;;;;;;;26.79;40.92;94654.41;4993063;28;7997;-57
2023/04/09 10:44:30;;;;;;;;;;;;;;;26.80;41.44;94648.38;4988550;28;7291;-55
2023/04/09 10:46:58;;;;;;;;;;;;;;;26.78;41.95;94650.91;4989595;28;7267;-55
2023/04/09 10:49:26;;;;;;;;;;;;;;;26.78;41.84;94652.91;4996907;28;7162;-55
2023/04/09 10:52:00;;;;;;;;;;;;;;;26.77;42.00;94651.44;4987463;28;7344;-55
2023/04/09 10:54:37;;;;;;;;;;;;;;;26.76;42.80;94647.16;5002228;28;7055;-55
2023/04/09 10:57:10;;;;;;;;;;;;;;;26.76;42.61;94647.91;4989878;28;7208;-55
2023/04/09 10:59:41;;;;;;;;;;;;;;;26.75;43.34;94638.13;4988484;28;7039;-55
2023/04/09 11:02:22;;;;;;;;;;;;;;;26.77;43.40;94640.38;4993945;28;7024;-55
2023/04/09 11:05:18;;;;;;;;;;;;;;;26.78;43.92;94641.88;4989453;28;7017;-55
2023/04/09 11:08:37;;;;;;;;;;;;;;;26.79;43.65;94633.09;4996450;28;9525;-55
2023/04/09 11:11:05;;;;;;;;;;;;;;;26.84;43.36;94640.56;4936266;28;9100;-55
2023/04/09 11:13:32;;;;;;;;;;;;;;;26.86;43.45;94637.31;4954140;28;9030;-55
2023/04/09 11:16:19;;;;;;;;;;;;;;;26.91;43.36;94639.25;4967819;28;9194;-55
2023/04/09 11:19:14;;;;;;;;;;;;;;;26.95;42.75;94642.50;4953714;28;7047;-55
2023/04/09 11:21:45;;;;;;;;;;;;;;;26.96;42.58;94632.97;4898882;29;6999;-55
2023/04/09 11:24:49;;;;;;;;;;;;;;;26.94;43.01;94627.22;4882835;29;7030;-55
2023/04/09 11:27:26;;;;;;;;;;;;;;;26.94;43.03;94627.22;4882626;29;7262;-56
2023/04/09 11:30:19;;;;;;;;;;;;;;;26.97;42.62;94631.69;4880116;29;9078;-55
2023/04/09 11:32:48;;;;;;;;;;;;;;;26.96;42.79;94635.72;4899377;29;7267;-55
2023/04/09 11:35:25;;;;;;;;;;;;;;;26.94;43.05;94627.22;4898310;29;7311;-55
2023/04/09 11:38:11;;;;;;;;;;;;;;;26.97;42.36;94626.16;4897600;29;6874;-55
2023/04/09 11:40:48;;;;;;;;;;;;;;;26.97;42.53;94628.91;4896653;29;7040;-55
2023/04/09 11:43:30;;;;;;;;;;;;;;;27.02;42.51;94628.13;4894229;29;7258;-55
2023/04/09 11:46:15;;;;;;;;;;;;;;;27.06;42.40;94625.84;4903122;29;9170;-55
2023/04/09 11:48:41;;;;;;;;;;;;;;;27.07;41.83;94618.31;4917494;28;9629;-55
2023/04/09 11:51:08;;;;;;;;;;;;;;;27.11;42.30;94625.06;4934282;29;7050;-55
2023/04/09 11:53:36;;;;;;;;;;;;;;;27.13;42.06;94628.03;4933418;29;7268;-55
2023/04/09 11:56:06;;;;;;;;;;;;;;;27.14;41.88;94621.28;4931724;29;9603;-55
2023/04/09 11:58:35;;;;;;;;;;;;;;;27.17;41.58;94617.47;4983997;28;7055;-55
2023/04/09 12:01:20;;;;;;;;;;;;;;;27.19;41.68;94617.69;5018721;28;7269;-55
2023/04/09 12:03:56;;;;;;;;;;;;;;;27.23;41.46;94615.38;5000932;28;8784;-55
2023/04/09 12:07:10;;;;;;;;;;;;;;;27.26;41.41;94616.38;5004345;28;8755;-55
2023/04/09 12:10:13;;;;;;;;;;;;;;;27.28;41.38;94619.38;4986431;28;8925;-55
2023/04/09 12:13:19;;;;;;;;;;;;;;;27.28;41.33;94622.88;4970457;28;7272;-55
2023/04/09 12:16:00;;;;;;;;;;;;;;;27.26;41.39;94613.63;4908199;29;7543;-55
2023/04/09 12:18:55;;;;;;;;;;;;;;;27.30;41.41;94608.56;4910633;29;9451;-56
2023/04/09 12:21:53;;;;;;;;;;;;;;;27.29;41.43;94610.59;4842384;29;7542;-55
2023/04/09 12:24:27;;;;;;;;;;;;;;;27.30;41.70;94619.59;4858067;29;9629;-55
2023/04/09 12:26:56;;;;;;;;;;;;;;;27.27;41.53;94615.88;4858135;29;7424;-55
2023/04/09 12:29:32;;;;;;;;;;;;;;;27.27;41.48;94607.59;4841062;29;7243;-55
2023/04/09 12:32:00;;;;;;;;;;;;;;;27.32;41.13;94608.78;4842497;29;7463;-56
2023/04/09 12:34:40;;;;;;;;;;;;;;;27.34;41.63;94611.78;4858106;29;7279;-55
2023/04/09 12:37:58;;;;;;;;;;;;;;;27.36;41.53;94612.78;4851943;29;7127;-55
2023/04/09 12:40:35;;;;;;;;;;;;;;;27.35;41.60;94611.31;4784538;29;7216;-55
2023/04/09 12:43:38;;;;;;;;;;;;;;;27.38;41.68;94617.81;4786374;29;7115;-55
2023/04/09 12:46:12;;;;;;;;;;;;;;;27.38;41.64;94610.25;4738582;30;8085;-55
2023/04/09 12:48:49;;;;;;;;;;;;;;;27.38;41.79;94615.78;4770323;29;9782;-56
2023/04/09 12:51:15;;;;;;;;;;;;;;;27.41;41.48;94614.00;4799768;29;7073;-55
2023/04/09 12:54:20;;;;;;;;;;;;;;;27.44;41.51;94612.97;4821104;29;9213;-55
2023/04/09 12:57:01;;;;;;;;;;;;;;;27.46;41.47;94610.44;4811002;29;7122;-55
2023/04/09 13:00:03;;;;;;;;;;;;;;;27.42;41.30;94610.75;4839475;29;8705;-55
2023/04/09 13:02:29;;;;;;;;;;;;;;;27.42;41.68;94605.22;4843626;29;9103;-55
2023/04/09 13:05:34;;;;;;;;;;;;;;;27.48;41.73;94608.66;4847941;29;9342;-55
2023/04/09 13:08:02;;;;;;;;;;;;;;;27.51;41.50;94609.63;4808384;29;7261;-55
2023/04/09 13:10:57;;;;;;;;;;;;;;;27.48;41.72;94600.38;4828684;29;7558;-55
2023/04/09 13:13:35;;;;;;;;;;;;;;;27.51;41.67;94604.84;4802671;29;9243;-55
2023/04/09 13:16:19;;;;;;;;;;;;;;;27.54;41.51;94592.00;4796458;29;7806;-55
2023/04/09 13:18:55;;;;;;;;;;;;;;;27.57;41.36;94600.03;4820996;29;7339;-55
2023/04/09 13:21:32;;;;;;;;;;;;;;;27.61;41.01;94597.72;4852606;29;9102;-55
2023/04/09 13:23:58;;;;;;;;;;;;;;;27.60;40.71;94593.44;4831020;29;8152;-55
2023/04/09 13:26:27;;;;;;;;;;;;;;;27.59;40.79;94585.69;4823762;29;7023;-55
2023/04/09 13:29:12;;;;;;;;;;;;;;;27.63;40.99;94597.94;4823489;29;9365;-55
2023/04/09 13:31:46;;;;;;;;;;;;;;;27.60;41.09;94587.91;4838680;29;7016;-56
2023/04/09 13:34:33;;;;;;;;;;;;;;;27.66;40.70;94592.66;4838687;29;7051;-55
2023/04/09 13:37:02;;;;;;;;;;;;;;;27.68;40.46;94585.34;4845926;29;7271;-56
2023/04/09 13:39:32;;;;;;;;;;;;;;;27.70;40.75;94584.81;4856691;29;7256;-55
2023/04/09 13:42:08;;;;;;;;;;;;;;;27.67;40.14;94581.06;4895236;29;8723;-55
2023/04/09 13:44:47;;;;;;;;;;;;;;;27.68;40.12;94582.56;4908933;29;7234;-56
2023/04/09 13:47:44;;;;;;;;;;;;;;;27.73;40.50;94581.00;4914943;29;7313;-56
2023/04/09 13:50:23;;;;;;;;;;;;;;;27.75;40.47;94582.00;4905876;28;7265;-56
2023/04/09 13:53:14;;;;;;;;;;;;;;;27.76;40.25;94577.19;4941099;28;8728;-56
2023/04/09 13:56:26;;;;;;;;;;;;;;;27.79;40.27;94570.63;4941715;28;9026;-56
2023/04/09 13:59:10;;;;;;;;;;;;;;;27.80;40.57;94564.56;4941232;28;7113;-57
2023/04/09 14:01:47;;;;;;;;;;;;;;;27.83;40.54;94565.56;4922729;29;7160;-56
2023/04/09 14:04:32;;;;;;;;;;;;;;;27.82;40.30;94564.81;4919426;29;7573;-56
2023/04/09 14:07:24;;;;;;;;;;;;;;;27.83;40.51;94555.25;4928938;28;7279;-56